Map

Track Data

SID SEASON NUMBER BASIN SUBBASIN NAME ISO_TIME NATURE LAT LON WMO_WIND WMO_PRES WMO_AGENCY TRACK_TYPE DIST2LAND LANDFALL IFLAG USA_AGENCY USA_ATCF_ID USA_LAT USA_LON USA_RECORD USA_STATUS USA_WIND USA_PRES USA_SSHS USA_R34_NE USA_R34_SE USA_R34_SW USA_R34_NW USA_R50_NE USA_R50_SE USA_R50_SW USA_R50_NW USA_R64_NE USA_R64_SE USA_R64_SW USA_R64_NW USA_POCI USA_ROCI USA_RMW USA_EYE TOKYO_LAT TOKYO_LON TOKYO_GRADE TOKYO_WIND TOKYO_PRES TOKYO_R50_DIR TOKYO_R50_LONG TOKYO_R50_SHORT TOKYO_R30_DIR TOKYO_R30_LONG TOKYO_R30_SHORT TOKYO_LAND CMA_LAT CMA_LON CMA_CAT CMA_WIND CMA_PRES HKO_LAT HKO_LON HKO_CAT HKO_WIND HKO_PRES NEWDELHI_LAT NEWDELHI_LON NEWDELHI_GRADE NEWDELHI_WIND NEWDELHI_PRES NEWDELHI_CI NEWDELHI_DP NEWDELHI_POCI REUNION_LAT REUNION_LON REUNION_TYPE REUNION_WIND REUNION_PRES REUNION_TNUM REUNION_CI REUNION_RMW REUNION_R34_NE REUNION_R34_SE REUNION_R34_SW REUNION_R34_NW REUNION_R50_NE REUNION_R50_SE REUNION_R50_SW REUNION_R50_NW REUNION_R64_NE REUNION_R64_SE REUNION_R64_SW REUNION_R64_NW BOM_LAT BOM_LON BOM_TYPE BOM_WIND BOM_PRES BOM_TNUM BOM_CI BOM_RMW BOM_R34_NE BOM_R34_SE BOM_R34_SW BOM_R34_NW BOM_R50_NE BOM_R50_SE BOM_R50_SW BOM_R50_NW BOM_R64_NE BOM_R64_SE BOM_R64_SW BOM_R64_NW BOM_ROCI BOM_POCI BOM_EYE BOM_POS_METHOD BOM_PRES_METHOD NADI_LAT NADI_LON NADI_CAT NADI_WIND NADI_PRES WELLINGTON_LAT WELLINGTON_LON WELLINGTON_WIND WELLINGTON_PRES DS824_LAT DS824_LON DS824_STAGE DS824_WIND DS824_PRES TD9636_LAT TD9636_LON TD9636_STAGE TD9636_WIND TD9636_PRES TD9635_LAT TD9635_LON TD9635_WIND TD9635_PRES TD9635_ROCI NEUMANN_LAT NEUMANN_LON NEUMANN_CLASS NEUMANN_WIND NEUMANN_PRES MLC_LAT MLC_LON MLC_CLASS MLC_WIND MLC_PRES USA_GUST BOM_GUST BOM_GUST_PER REUNION_GUST REUNION_GUST_PER USA_SEAHGT USA_SEARAD_NE USA_SEARAD_SE USA_SEARAD_SW USA_SEARAD_NW STORM_SPEED STORM_DIR
1991165N11143 1991 29 WP MM NOT_NAMED 1991-06-14 00:00:00 TS 11.0000 142.500 main 1489 1482 __O___________ -1 11.0000 142.500 1 23 1008 5 271
1991165N11143 1991 29 WP MM NOT_NAMED 1991-06-14 03:00:00 TS 11.0025 142.253 main 1482 1473 __P___________ -1 11.0025 142.253 1 23 1007 5 270
1991165N11143 1991 29 WP MM NOT_NAMED 1991-06-14 06:00:00 TS 11.0000 142.000 main 1473 1466 __O___________ -1 11.0000 142.000 1 23 1006 5 269
1991165N11143 1991 29 WP MM NOT_NAMED 1991-06-14 09:00:00 TS 10.9925 141.742 main 1463 1458 __P___________ -1 10.9925 141.742 1 23 1006 5 270
1991165N11143 1991 29 WP MM NOT_NAMED 1991-06-14 12:00:00 TS 11.0000 141.500 main 1458 1450 __O___________ -1 11.0000 141.500 1 23 1006 5 275
1991165N11143 1991 29 WP MM NOT_NAMED 1991-06-14 15:00:00 TS 11.0350 141.248 main 1446 1446 __P___________ -1 11.0350 141.248 1 23 1006 4 284
1991165N11143 1991 29 WP MM NOT_NAMED 1991-06-14 18:00:00 TS 11.1000 141.100 main 1452 1452 __O___________ -1 11.1000 141.100 1 23 1006 2 335
1991165N11143 1991 29 WP MM NOT_NAMED 1991-06-14 21:00:00 TS 11.2075 141.170 main 1466 1466 __P___________ -1 11.2075 141.170 1 23 1006 3 45
1991165N11143 1991 29 WP MM NOT_NAMED 1991-06-15 00:00:00 TS 11.3000 141.300 main 1481 1481 __O___________ -1 11.3000 141.300 1 23 1006 2 53
1991165N11143 1991 29 WP MM NOT_NAMED 1991-06-15 03:00:00 TS 11.3150 141.315 main 1481 1481 __P___________ -1 11.3150 141.315 1 23 1005 0 0
1991165N11143 1991 29 WP MM NOT_NAMED 1991-06-15 06:00:00 TS 11.3000 141.300 main 1481 1481 __O___________ -1 11.3000 141.300 1 23 1005 0 0
1991165N11143 1991 29 WP MM NOT_NAMED 1991-06-15 09:00:00 TS 11.2925 141.293 main 1481 1481 __P___________ -1 11.2925 141.293 1 23 1005 0 0
1991165N11143 1991 29 WP MM NOT_NAMED 1991-06-15 12:00:00 TS 11.3000 141.300 main 1481 1481 __O___________ -1 11.3000 141.300 1 23 1005 1 51
1991165N11143 1991 29 WP MM NOT_NAMED 1991-06-15 15:00:00 TS 11.3425 141.342 main 1481 1481 __P___________ -1 11.3425 141.342 1 26 1003 1 43
1991165N11143 1991 29 WP MM NOT_NAMED 1991-06-15 18:00:00 TS 11.4000 141.400 main 1496 1496 __O___________ -1 11.4000 141.400 1 29 1002 2 43
1991165N11143 1991 29 WP MM NOT_NAMED 1991-06-15 21:00:00 TS 11.4575 141.458 main 1510 1510 __P___________ -1 11.4575 141.458 1 29 1002 1 43
1991165N11143 1991 29 WP MM NOT_NAMED 1991-06-16 00:00:00 TS 11.5000 141.500 main 1510 1510 __O___________ -1 11.5000 141.500 1 29 1002 1 77
1991165N11143 1991 29 WP MM NOT_NAMED 1991-06-16 03:00:00 TS 11.4700 141.508 main 1510 1510 __P___________ -1 11.4700 141.508 1 29 1002 0 0
1991165N11143 1991 29 WP MM NOT_NAMED 1991-06-16 06:00:00 TS 11.5000 141.500 main 1510 1510 __O___________ -1 11.5000 141.500 1 29 1002 2 354
1991165N11143 1991 29 WP MM NOT_NAMED 1991-06-16 09:00:00 TS 11.7125 141.485 main 1531 1531 __P___________ -1 11.7125 141.485 1 29 1002 5 2
1991165N11143 1991 29 WP MM NOT_NAMED 1991-06-16 12:00:00 TS 12.0000 141.500 main 1562 1562 __O___________ -1 12.0000 141.500 1 29 1002 6 13
1991165N11143 1991 29 WP MM NOT_NAMED 1991-06-16 15:00:00 TS 12.2650 141.615 main 1597 1597 __P___________ -1 12.2650 141.615 1 29 1002 5 21
1991165N11143 1991 29 WP MM NOT_NAMED 1991-06-16 18:00:00 TS 12.5000 141.700 main 1622 1622 __O___________ -1 12.5000 141.700 1 29 1002 4 0
1991165N11143 1991 29 WP MM NOT_NAMED 1991-06-16 21:00:00 TS 12.6800 141.638 main 1638 1638 __P___________ -1 12.6800 141.638 1 29 1002 4 327
1991165N11143 1991 29 WP MM NOT_NAMED 1991-06-17 00:00:00 TS 12.8000 141.500 main 1644 1640 __O___________ -1 12.8000 141.500 1 29 1002 3 301
1991165N11143 1991 29 WP MM NOT_NAMED 1991-06-17 03:00:00 TS 12.8500 141.342 main 1646 1642 __P___________ -1 12.8500 141.342 1 29 1002 3 289
1991165N11143 1991 29 WP MM NOT_NAMED 1991-06-17 06:00:00 TS 12.9000 141.200 main 1642 1642 __O___________ -1 12.9000 141.200 1 29 1002 3 312
1991165N11143 1991 29 WP MM NOT_NAMED 1991-06-17 09:00:00 TS 13.0350 141.135 main 1649 1649 __P___________ -1 13.0350 141.135 1 29 1002 3 343
1991165N11143 1991 29 WP MM NOT_NAMED 1991-06-17 12:00:00 TS 13.2000 141.100 main 1670 1670 __O___________ -1 13.2000 141.100 1 29 1002 3 345
1991165N11143 1991 29 WP MM NOT_NAMED 1991-06-17 15:00:00 TS 13.3575 141.043 main 1674 1674 __P___________ -1 13.3575 141.043 1 29 1002 3 343
1991165N11143 1991 29 WP MM NOT_NAMED 1991-06-17 18:00:00 TS 13.5000 141.000 main 1675 1675 __O___________ -1 13.5000 141.000 1 29 1002 2 346
1991165N11143 1991 29 WP MM NOT_NAMED 1991-06-17 21:00:00 TS 13.6000 140.992 main 1677 1677 __P___________ -1 13.6000 140.992 1 29 1002 2 8
1991165N11143 1991 29 WP MM NOT_NAMED 1991-06-18 00:00:00 TS 13.7000 141.000 main 1679 1679 __O___________ -1 13.7000 141.000 1 29 1002 2 0
1991165N11143 1991 29 WP MM NOT_NAMED 1991-06-18 03:00:00 TS 13.8275 140.985 main 1680 1680 __P___________ -1 13.8275 140.985 1 29 1002 3 0
1991165N11143 1991 29 WP MM NOT_NAMED 1991-06-18 06:00:00 TS 14.0000 141.000 main 1684 1684 __O___________ -1 14.0000 141.000 1 29 1002 5 12
1991165N11143 1991 29 WP MM NOT_NAMED 1991-06-18 09:00:00 TS 14.2725 141.077 main 1701 1701 __P___________ -1 14.2725 141.077 1 26 1003 5 21
1991165N11143 1991 29 WP MM NOT_NAMED 1991-06-18 12:00:00 TS 14.5000 141.200 main 1716 1716 __O___________ -1 14.5000 141.200 1 23 1005 4 47
1991165N11143 1991 29 WP MM NOT_NAMED 1991-06-18 15:00:00 TS 14.5375 141.365 main 1737 1737 __P___________ -1 14.5375 141.365 1 23 1005 3 90
1991165N11143 1991 29 WP MM NOT_NAMED 1991-06-18 18:00:00 TS 14.5000 141.500 main 1747 1747 __O___________ -1 14.5000 141.500 1 23 1005 2 107
1991165N11143 1991 29 WP MM NOT_NAMED 1991-06-18 21:00:00 TS 14.4875 141.532 main 1747 1747 __P___________ -1 14.4875 141.532 1 23 1005 0 0
1991165N11143 1991 29 WP MM NOT_NAMED 1991-06-19 00:00:00 TS 14.5000 141.500 main 1747 __O___________ -1 14.5000 141.500 1 23 1005 1 288

Digital Typhoon Data and Search

About IBTrACS Database

This database is a web-friendly format of International Best Track Archive for Climate Stewardship (IBTrACS), a global best track data archive curated by NOAA dating back to 1842.

Updated: 2021-12-08